KELD

South Arkansas Regional Airport/ Goodwin Field

Airport
ICAO code
KELD
Summary
ICAO Region
NAM
ICAO Territory
Location

El Dorado, Arkansas,

Elevation
277 ft
Coordinates
33° 13' 14" N , 92° 48' 37" W
KCC
Metar
KELD 151753Z AUTO 15009G16KT 10SM BKN041 27/17 A2999 RMK AO2 SLP151 T02670172 10267 20167 58007

Description

General Aviation airport serving El Dorado, Arkansas located 8 nm west of the city's business district.

Climatology

Humid “subtropical” climate (Köppen climate classification Cfa) - characterized by hot, humid summers and cool winters. Significant amounts of precipitation occur in all seasons in most areas. Winter rainfall (and sometimes snowfall) is associated with large storms that the westerlies steer from west to east. Most summer rainfall occurs during thunderstorms and occasional tropical storms (hurricanes).

Airport map

Aerial View

SKYbrary Partners:

Safety knowledge contributed by: